Stations météo

réclame
Mon MeteoGroup
Sumburgh, Grande-Bretagne (3003): Température de l'air & dewpoint: 08.08.2020 20:00:00 - 14.08.2020 20:00:00 (BST)Sumburgh, Grande-Bretagne (3003): Vitesse du vent: 08.08.2020 20:00:00 - 14.08.2020 20:00:00 (BST)Sumburgh, Grande-Bretagne (3003): Direction du vent: 08.08.2020 20:00:00 - 14.08.2020 20:00:00 (BST)Sumburgh, Grande-Bretagne (3003): visibility: 08.08.2020 20:00:00 - 14.08.2020 20:00:00 (BST)
Date & Time tt [°C] td [°C] ff [km/h] ff [knt] dd vv [km]
14.08.2020 20:00:00 12,0 10,0 13 7 W 10
14.08.2020 19:00:00 12,0 10,0 16 9 W 10
14.08.2020 18:00:00 13,0 10,0 18 10 W 10
14.08.2020 17:00:00 13,0 10,0 21 11 W 10
14.08.2020 16:00:00 13,0 11,0 18 10 W 10
14.08.2020 15:00:00 13,0 11,0 16 9 WSW 10
14.08.2020 14:00:00 13,0 11,0 16 9 WSW 10
14.08.2020 13:00:00 13,0 10,0 16 9 WSW 10
14.08.2020 12:00:00 12,0 11,0 13 7 W 10
14.08.2020 11:00:00 12,0 10,0 15 8 W 10
14.08.2020 10:00:00 12,0 10,0 15 8 W 10
14.08.2020 09:00:00 12,0 10,0 15 8 W 10
14.08.2020 08:00:00 12,0 10,0 13 7 W 10
14.08.2020 07:00:00 11,0 10,0 8 4 WSW 10
14.08.2020 06:00:00 - - - - - -
14.08.2020 05:00:00 - - - - - -
14.08.2020 04:00:00 - - - - - -
14.08.2020 03:00:00 - - - - - -
14.08.2020 02:00:00 - - - - - -
14.08.2020 01:00:00 - - - - - -
14.08.2020 00:00:00 - - - - - -
13.08.2020 23:00:00 - - - - - -
13.08.2020 22:00:00 - - - - - -
13.08.2020 21:00:00 - - - - - -
13.08.2020 20:00:00 13,0 11,0 11 6 NNW 10
13.08.2020 19:00:00 13,0 11,0 11 6 NNW 10
13.08.2020 18:00:00 14,0 12,0 13 7 N 10
13.08.2020 17:00:00 14,0 12,0 13 7 NE 10
13.08.2020 16:00:00 14,0 12,0 15 8 NE 10
13.08.2020 15:00:00 14,0 12,0 13 7 N 10
13.08.2020 14:00:00 14,0 13,0 21 11 NNW 10
13.08.2020 13:00:00 14,0 13,0 18 10 NNW 6
13.08.2020 12:00:00 14,0 14,0 11 6 NNW 9
13.08.2020 11:00:00 14,0 14,0 9 5 NNE 9
13.08.2020 10:00:00 14,0 14,0 11 6 NE 8
13.08.2020 09:00:00 13,0 13,0 13 7 NNE 0,4
13.08.2020 08:00:00 14,0 14,0 11 6 N 0,7
13.08.2020 07:00:00 14,0 13,0 13 7 NW 0,4
13.08.2020 06:00:00 14,0 14,0 0 0 N 0,1
13.08.2020 05:00:00 14,0 14,0 21 11 NNW 0,3
13.08.2020 04:00:00 15,0 14,0 22 12 NNW 1,3
13.08.2020 03:00:00 14,0 14,0 21 11 NW 6
13.08.2020 02:00:00 14,0 14,0 21 11 NNW 0,5
13.08.2020 01:00:00 14,0 14,0 22 12 NNW 0,2
13.08.2020 00:00:00 15,0 14,0 16 9 NNW 2,4
12.08.2020 23:00:00 15,0 14,0 4 2 - 10
12.08.2020 22:00:00 16,0 15,0 8 4 N 10
12.08.2020 21:00:00 16,0 15,0 4 2 N 10
12.08.2020 20:00:00 15,0 15,0 9 5 NE 6
12.08.2020 19:00:00 15,0 15,0 4 2 - 6
12.08.2020 18:00:00 15,0 14,0 5 3 - 9
12.08.2020 17:00:00 15,0 15,0 11 6 NE 8
12.08.2020 16:00:00 16,0 15,0 13 7 NE 9
12.08.2020 15:00:00 16,0 15,0 16 9 NNW 4,0
12.08.2020 14:00:00 17,0 15,0 8 4 S 9
12.08.2020 13:00:00 16,0 15,0 9 5 ESE 9
12.08.2020 12:00:00 17,0 15,0 13 7 SE 8
12.08.2020 11:00:00 17,0 15,0 9 5 ESE 9
12.08.2020 10:00:00 17,0 15,0 13 7 SSE 10
12.08.2020 09:00:00 16,0 15,0 8 4 E 8
12.08.2020 08:00:00 15,0 14,0 9 5 E 10
12.08.2020 07:00:00 15,0 14,0 15 8 E 8
12.08.2020 06:00:00 15,0 14,0 11 6 E 10
12.08.2020 05:00:00 15,0 14,0 4 2 E 10
12.08.2020 04:00:00 15,0 13,0 5 3 - 10
12.08.2020 03:00:00 15,0 13,0 5 3 - 10
12.08.2020 02:00:00 16,0 14,0 22 12 SE 10
12.08.2020 01:00:00 16,0 14,0 29 16 SE 10
12.08.2020 00:00:00 16,0 14,0 26 14 SE 10
11.08.2020 23:00:00 16,0 14,0 29 16 SE 10
11.08.2020 22:00:00 15,0 14,0 22 12 ESE 10
11.08.2020 21:00:00 16,0 14,0 29 16 ESE 10
11.08.2020 20:00:00 16,0 14,0 31 17 ESE 10
11.08.2020 19:00:00 16,0 14,0 28 15 ESE 10
11.08.2020 18:00:00 17,0 14,0 22 12 ESE 10
11.08.2020 17:00:00 17,0 14,0 26 14 ESE 10
11.08.2020 16:00:00 18,0 15,0 24 13 - 10
11.08.2020 15:00:00 18,0 15,0 22 12 ESE 10
11.08.2020 14:00:00 18,0 15,0 22 12 ESE 10
11.08.2020 13:00:00 17,0 15,0 21 11 E 10
11.08.2020 12:00:00 16,0 15,0 21 11 E 10
11.08.2020 11:00:00 16,0 15,0 18 10 E 10
11.08.2020 10:00:00 15,0 14,0 16 9 E 0,8
11.08.2020 09:00:00 15,0 14,0 18 10 E 10
11.08.2020 08:00:00 14,0 14,0 15 8 E 10
11.08.2020 07:00:00 14,0 13,0 13 7 E 10
11.08.2020 06:00:00 14,0 13,0 13 7 E 10
11.08.2020 05:00:00 14,0 13,0 15 8 E 10
11.08.2020 04:00:00 14,0 13,0 13 7 E 10
11.08.2020 03:00:00 13,0 13,0 11 6 E 10
11.08.2020 02:00:00 12,0 12,0 11 6 E 10
11.08.2020 01:00:00 13,0 13,0 9 5 E 10
11.08.2020 00:00:00 14,0 13,0 8 4 E 10
10.08.2020 23:00:00 14,0 13,0 13 7 SE 10
10.08.2020 22:00:00 14,0 12,0 9 5 ESE 10
10.08.2020 21:00:00 14,0 12,0 13 7 SE 10
10.08.2020 20:00:00 14,0 12,0 13 7 ESE 10
10.08.2020 19:00:00 14,0 12,0 13 7 ESE 10
10.08.2020 18:00:00 15,0 12,0 13 7 ESE 10
10.08.2020 17:00:00 15,0 12,0 13 7 ESE 10
10.08.2020 16:00:00 15,0 12,0 11 6 SE 10
10.08.2020 15:00:00 15,0 12,0 15 8 SE 10
10.08.2020 14:00:00 16,0 12,0 15 8 SSE 10
10.08.2020 13:00:00 15,0 12,0 18 10 SE 10
10.08.2020 12:00:00 15,0 11,0 18 10 SE 10
10.08.2020 11:00:00 14,0 11,0 16 9 ESE 10
10.08.2020 10:00:00 14,0 11,0 21 11 ESE 10
10.08.2020 09:00:00 15,0 12,0 21 11 ESE 10
10.08.2020 08:00:00 14,0 11,0 15 8 ESE 10
10.08.2020 07:00:00 13,0 11,0 15 8 ESE 10
10.08.2020 06:00:00 12,0 11,0 11 6 ESE 10
10.08.2020 05:00:00 11,0 10,0 8 4 ESE 10
10.08.2020 04:00:00 11,0 10,0 5 3 ESE 10
10.08.2020 03:00:00 12,0 10,0 8 4 SE 10
10.08.2020 02:00:00 12,0 10,0 8 4 ESE 10
10.08.2020 01:00:00 12,0 10,0 9 5 SE 10
10.08.2020 00:00:00 12,0 10,0 8 4 ESE 10
09.08.2020 23:00:00 12,0 10,0 4 2 ESE 10
09.08.2020 22:00:00 13,0 10,0 5 3 SE 10
09.08.2020 21:00:00 13,0 11,0 9 5 ESE 10
09.08.2020 20:00:00 14,0 11,0 8 4 E 10
09.08.2020 19:00:00 15,0 10,0 9 5 ESE 10
09.08.2020 18:00:00 15,0 11,0 9 5 ESE 10
09.08.2020 17:00:00 15,0 11,0 13 7 S 10
09.08.2020 16:00:00 15,0 11,0 15 8 S 10
09.08.2020 15:00:00 15,0 12,0 15 8 S 10
09.08.2020 14:00:00 16,0 12,0 13 7 S 10
09.08.2020 13:00:00 16,0 12,0 11 6 S 10
09.08.2020 12:00:00 15,0 11,0 13 7 S 10
09.08.2020 11:00:00 15,0 11,0 9 5 S 10
09.08.2020 10:00:00 15,0 12,0 8 4 S 10
09.08.2020 09:00:00 13,0 11,0 9 5 S 10
09.08.2020 08:00:00 13,0 12,0 4 2 E 10
09.08.2020 07:00:00 12,0 11,0 2 1 N 10
09.08.2020 06:00:00 8,0 8,0 2 1 NE 0,3
09.08.2020 05:00:00 10,0 9,0 0 0 N 0,2
09.08.2020 04:00:00 9,0 8,0 0 0 N 0,5
09.08.2020 03:00:00 10,0 9,0 2 1 WSW 4,3
09.08.2020 02:00:00 10,0 10,0 4 2 SW 10
09.08.2020 01:00:00 10,0 9,0 0 0 N 10
09.08.2020 00:00:00 11,0 10,0 8 4 SSW 10
08.08.2020 23:00:00 12,0 11,0 9 5 SW 10
08.08.2020 22:00:00 12,0 11,0 11 6 SW 10
08.08.2020 21:00:00 12,0 11,0 13 7 SW 10
08.08.2020 20:00:00 13,0 11,0 9 5 SW 10

tt = Température de l'air
td = dewpoint
ff = Vitesse du vent
dd = Direction du vent
vv = visibility

stations d'obs. à proximité